createdAt,value
2023-05-25T00:04:01.199Z,57.81
2023-05-25T00:09:10.238Z,58.01
2023-05-25T00:14:19.546Z,58.24
2023-05-25T00:19:28.247Z,58.57
2023-05-25T00:24:36.769Z,58.63
2023-05-25T00:29:45.048Z,58.87
2023-05-25T00:34:54.261Z,58.98
2023-05-25T00:40:02.388Z,59.08
2023-05-25T00:45:13.361Z,59.29
2023-05-25T00:50:27.335Z,59.37
2023-05-25T00:55:39.134Z,59.50
2023-05-25T01:00:51.763Z,59.70
2023-05-25T01:06:01.504Z,59.91
2023-05-25T01:11:14.209Z,60.11
2023-05-25T01:16:22.957Z,60.17
2023-05-25T01:21:38.758Z,60.24
2023-05-25T01:26:57.882Z,60.27
2023-05-25T01:32:09.172Z,60.41
2023-05-25T01:37:18.103Z,60.63
2023-05-25T01:42:27.493Z,60.86
2023-05-25T01:47:43.029Z,61.08
2023-05-25T01:52:58.716Z,61.21
2023-05-25T01:58:07.658Z,61.44
2023-05-25T02:03:16.602Z,61.64
2023-05-25T02:08:25.530Z,62.70
2023-05-25T02:13:33.921Z,63.62
2023-05-25T02:18:45.850Z,63.56
2023-05-25T02:23:55.637Z,63.43
2023-05-25T02:29:04.319Z,63.22
2023-05-25T02:34:14.503Z,63.03
2023-05-25T02:39:23.125Z,62.86
2023-05-25T02:44:31.809Z,62.77
2023-05-25T02:49:40.469Z,62.78
2023-05-25T02:54:49.500Z,62.77
2023-05-25T03:00:03.296Z,62.75
2023-05-25T03:05:12.139Z,62.70
2023-05-25T03:10:21.360Z,62.71
2023-05-25T03:15:30.323Z,62.77
2023-05-25T03:20:39.564Z,62.85
2023-05-25T03:25:48.134Z,62.91
2023-05-25T03:30:57.059Z,62.95
2023-05-25T03:36:09.071Z,63.07
2023-05-25T03:41:17.257Z,63.24
2023-05-25T03:46:25.197Z,63.32
2023-05-25T03:51:33.655Z,63.43
2023-05-25T03:56:41.559Z,63.56
2023-05-25T04:01:49.938Z,63.67
2023-05-25T04:06:57.769Z,63.92
2023-05-25T04:12:06.283Z,64.16
2023-05-25T04:17:14.291Z,64.47
2023-05-25T04:22:23.237Z,64.56
2023-05-25T04:27:32.592Z,64.65
2023-05-25T04:32:43.935Z,64.62
2023-05-25T04:38:13.011Z,64.62
2023-05-25T04:43:22.370Z,64.41
2023-05-25T04:48:33.596Z,64.30
2023-05-25T04:53:42.487Z,64.14
2023-05-25T04:58:50.902Z,64.00
2023-05-25T05:03:59.872Z,63.87
2023-05-25T05:09:09.063Z,63.76
2023-05-25T05:14:17.656Z,63.60
2023-05-25T05:19:26.829Z,63.41
2023-05-25T05:24:35.942Z,63.29
2023-05-25T05:29:45.409Z,63.13
2023-05-25T05:34:54.106Z,62.99
2023-05-25T05:40:20.149Z,62.84
2023-05-25T05:45:28.122Z,62.66
2023-05-25T05:50:38.214Z,62.47
2023-05-25T05:55:51.722Z,62.40
2023-05-25T06:01:02.491Z,62.15
2023-05-25T06:06:11.083Z,61.82
2023-05-25T06:11:19.721Z,61.60
2023-05-25T06:16:28.111Z,61.17
2023-05-25T06:21:37.785Z,61.12
2023-05-25T06:26:46.367Z,61.17
2023-05-25T06:31:56.359Z,60.93
2023-05-25T06:37:04.778Z,60.78
2023-05-25T06:42:13.113Z,60.65
2023-05-25T06:47:31.516Z,60.49
2023-05-25T06:52:39.811Z,60.16
2023-05-25T06:57:47.509Z,59.72
2023-05-25T07:02:56.250Z,58.52
2023-05-25T07:08:04.100Z,58.09
2023-05-25T07:13:11.710Z,57.93
2023-05-25T07:18:19.769Z,57.61
2023-05-25T07:23:28.097Z,57.36
2023-05-25T07:28:36.316Z,56.77
2023-05-25T07:33:44.552Z,56.42
2023-05-25T07:38:53.380Z,56.20
2023-05-25T07:44:01.286Z,55.89
2023-05-25T07:49:14.028Z,55.65
2023-05-25T07:54:22.190Z,55.29
2023-05-25T07:59:30.181Z,55.70
2023-05-25T08:04:37.993Z,55.87
2023-05-25T08:09:46.671Z,55.46
2023-05-25T08:14:54.728Z,55.01
2023-05-25T08:20:02.654Z,55.06
2023-05-25T08:25:11.688Z,55.37
2023-05-25T08:30:19.863Z,55.72
2023-05-25T08:35:28.399Z,55.89
2023-05-25T08:40:36.804Z,55.76
2023-05-25T08:45:49.618Z,55.71
2023-05-25T08:50:59.610Z,55.87
2023-05-25T08:56:11.502Z,55.81
2023-05-25T09:01:23.111Z,55.56
2023-05-25T09:06:31.734Z,55.72
2023-05-25T09:11:42.218Z,55.84
2023-05-25T09:16:53.857Z,56.48
2023-05-25T09:22:14.848Z,57.02
2023-05-25T09:27:24.631Z,57.23
2023-05-25T09:32:33.144Z,57.63
2023-05-25T09:37:42.770Z,57.97
2023-05-25T09:42:52.177Z,58.24
2023-05-25T09:48:01.299Z,58.57
2023-05-25T09:53:09.665Z,58.93
2023-05-25T09:58:17.587Z,59.23
2023-05-25T10:03:26.174Z,59.23
2023-05-25T10:08:35.024Z,58.98
2023-05-25T10:13:47.257Z,58.66
2023-05-25T10:19:03.796Z,58.56
2023-05-25T10:24:22.651Z,58.43
2023-05-25T10:29:32.084Z,58.28
2023-05-25T10:34:40.220Z,58.16
2023-05-25T10:39:48.680Z,58.13
2023-05-25T10:44:58.152Z,58.23
2023-05-25T10:50:06.135Z,58.30
2023-05-25T10:55:14.707Z,58.40
2023-05-25T11:00:23.900Z,58.49
2023-05-25T11:05:42.033Z,58.61
2023-05-25T11:10:55.419Z,58.67
2023-05-25T11:16:18.409Z,58.91
2023-05-25T11:21:46.124Z,59.07
2023-05-25T11:27:06.697Z,59.22
2023-05-25T11:32:18.171Z,59.31
2023-05-25T11:37:29.252Z,59.11
2023-05-25T11:42:35.774Z,58.80
2023-05-25T11:47:43.804Z,58.19
2023-05-25T11:52:51.357Z,56.77
2023-05-25T11:58:02.635Z,56.24
2023-05-25T12:03:11.249Z,55.75
2023-05-25T12:08:33.565Z,55.90
2023-05-25T12:13:44.971Z,55.05
2023-05-25T12:18:53.448Z,54.58
2023-05-25T12:24:02.156Z,54.24
2023-05-25T12:29:10.713Z,53.87
2023-05-25T12:34:20.057Z,53.41
2023-05-25T12:39:39.933Z,53.26
2023-05-25T12:44:49.171Z,53.23
2023-05-25T12:50:12.994Z,53.03
2023-05-25T12:55:32.338Z,52.79
2023-05-25T13:00:43.264Z,52.50
2023-05-25T13:05:49.222Z,52.09
2023-05-25T13:10:58.566Z,52.28
2023-05-25T13:16:07.138Z,51.14
2023-05-25T13:21:15.144Z,50.71
2023-05-25T13:26:23.274Z,50.36
2023-05-25T13:31:31.016Z,50.09
2023-05-25T13:36:40.022Z,49.97
2023-05-25T13:41:48.665Z,49.75
2023-05-25T13:46:56.854Z,49.51
2023-05-25T13:52:05.554Z,49.37
2023-05-25T13:57:14.462Z,49.01
2023-05-25T14:02:22.719Z,48.99
2023-05-25T14:07:30.707Z,48.73
2023-05-25T14:12:39.523Z,48.32
2023-05-25T14:17:47.908Z,47.97
2023-05-25T14:22:56.787Z,47.75
2023-05-25T14:28:05.028Z,47.46
2023-05-25T14:33:14.720Z,47.45
2023-05-25T14:38:22.742Z,47.46
2023-05-25T14:43:31.771Z,47.36
2023-05-25T14:48:39.793Z,47.14
2023-05-25T14:53:47.732Z,46.77
2023-05-25T14:58:55.605Z,46.32
2023-05-25T15:04:03.540Z,46.24
2023-05-25T15:09:13.957Z,46.42
2023-05-25T15:14:22.313Z,46.61
2023-05-25T15:19:30.809Z,46.68
2023-05-25T15:24:38.624Z,46.84
2023-05-25T15:29:46.571Z,46.88
2023-05-25T15:34:54.900Z,46.95
2023-05-25T15:40:03.590Z,47.08
2023-05-25T15:45:13.685Z,47.22
2023-05-25T15:50:22.086Z,47.32
2023-05-25T15:55:29.938Z,47.47
2023-05-25T16:00:38.043Z,47.50
2023-05-25T16:05:46.430Z,47.44
2023-05-25T16:10:54.141Z,47.31
2023-05-25T16:16:02.624Z,47.26
2023-05-25T16:21:11.398Z,47.28
2023-05-25T16:26:19.635Z,47.40
2023-05-25T16:31:28.363Z,47.50
2023-05-25T16:36:36.746Z,47.59
2023-05-25T16:41:45.698Z,47.68
2023-05-25T16:46:53.955Z,47.71
2023-05-25T16:52:03.305Z,47.69
2023-05-25T16:57:12.541Z,47.56
2023-05-25T17:02:21.253Z,47.37
2023-05-25T17:07:30.559Z,47.29
2023-05-25T17:12:39.592Z,47.29
2023-05-25T17:17:49.978Z,47.45
2023-05-25T17:23:01.513Z,47.70
2023-05-25T17:28:12.482Z,48.00
2023-05-25T17:33:20.978Z,48.33
2023-05-25T17:38:29.191Z,48.64
2023-05-25T17:43:37.603Z,48.94
2023-05-25T17:48:46.478Z,49.22
2023-05-25T17:53:55.257Z,49.55
2023-05-25T17:59:04.368Z,49.91
2023-05-25T18:04:12.407Z,50.19
2023-05-25T18:09:20.526Z,50.52
2023-05-25T18:14:29.433Z,50.79
2023-05-25T18:19:37.744Z,51.11
2023-05-25T18:24:45.990Z,51.43
2023-05-25T18:29:54.159Z,51.74
2023-05-25T18:35:02.967Z,52.00
2023-05-25T18:40:13.920Z,52.29
2023-05-25T18:45:22.253Z,52.49
2023-05-25T18:50:30.215Z,52.72
2023-05-25T18:55:38.752Z,52.88
2023-05-25T19:00:46.879Z,53.04
2023-05-25T19:05:55.064Z,53.16
2023-05-25T19:11:03.842Z,53.23
2023-05-25T19:16:13.094Z,53.26
2023-05-25T19:21:21.319Z,53.35
2023-05-25T19:26:29.659Z,53.48
2023-05-25T19:31:38.061Z,53.66
2023-05-25T19:36:47.154Z,53.85
2023-05-25T19:42:00.589Z,53.99
2023-05-25T19:47:09.108Z,54.19
2023-05-25T19:52:18.385Z,54.30
2023-05-25T19:57:28.232Z,54.48
2023-05-25T20:02:36.821Z,54.62
2023-05-25T20:07:45.083Z,54.70
2023-05-25T20:12:53.758Z,54.73
2023-05-25T20:18:02.474Z,54.69
2023-05-25T20:23:11.859Z,54.73
2023-05-25T20:28:20.558Z,54.78
2023-05-25T20:33:28.763Z,54.80
2023-05-25T20:38:37.069Z,54.90
2023-05-25T20:43:47.333Z,55.01
2023-05-25T20:48:57.679Z,55.10
2023-05-25T20:54:06.872Z,55.14
2023-05-25T20:59:15.228Z,55.16
2023-05-25T21:04:23.872Z,55.15
2023-05-25T21:09:31.881Z,55.18
2023-05-25T21:14:39.731Z,55.20
2023-05-25T21:19:49.559Z,55.26
2023-05-25T21:24:58.889Z,55.26
2023-05-25T21:30:07.628Z,55.17
2023-05-25T21:35:16.627Z,55.13
2023-05-25T21:40:24.471Z,55.11
2023-05-25T21:45:33.566Z,55.19
2023-05-25T21:50:41.290Z,55.19
2023-05-25T21:55:50.068Z,55.18
2023-05-25T22:00:59.346Z,55.29
2023-05-25T22:06:07.797Z,55.33
2023-05-25T22:11:16.185Z,55.46
2023-05-25T22:16:24.888Z,55.47
2023-05-25T22:21:33.597Z,55.34
2023-05-25T22:26:42.367Z,54.89
2023-05-25T22:31:51.302Z,54.66
2023-05-25T22:36:59.762Z,54.24
2023-05-25T22:42:09.012Z,54.02
2023-05-25T22:47:17.451Z,53.76
2023-05-25T22:52:25.858Z,53.86
2023-05-25T22:57:34.638Z,54.22
2023-05-25T23:02:43.750Z,54.34
2023-05-25T23:07:51.854Z,54.34
2023-05-25T23:13:00.498Z,54.28
2023-05-25T23:18:08.634Z,54.31
2023-05-25T23:23:16.557Z,54.37
2023-05-25T23:28:26.974Z,54.39
2023-05-25T23:33:35.838Z,54.50
2023-05-25T23:38:44.237Z,54.63
2023-05-25T23:43:52.435Z,54.82
2023-05-25T23:49:00.943Z,55.29
2023-05-25T23:54:09.288Z,55.69
2023-05-25T23:59:17.812Z,55.96
